Time;durP1;ratioP1;P1;durP2;ratioP2;P2;SDS_P1;SDS_P2;PMS_P1;PMS_P2;Temp;Humidity;BMP_temperature;BMP_pressure;BME280_temperature;BME280_humidity;BME280_pressure;Samples;Min_cycle;Max_cycle;Signal;HPM_P1;HPM_P2
2023/01/26 00:01:54;;;;;;;53.63;18.02;;;;;;;;;;6106480;19;20018;-75
2023/01/26 00:04:05;;;;;;;57.35;21.75;;;;;;;;;;6107178;19;20018;-74
2023/01/26 00:06:12;;;;;;;67.38;22.50;;;;;;;;;;6106947;19;20047;-74
2023/01/26 00:08:17;;;;;;;61.47;21.20;;;;;;;;;;6104994;19;20011;-74
2023/01/26 00:10:24;;;;;;;58.45;20.88;;;;;;;;;;6105198;19;20038;-74
2023/01/26 00:12:29;;;;;;;61.35;22.70;;;;;;;;;;6103348;19;20010;-73
2023/01/26 00:14:48;;;;;;;69.55;22.23;;;;;;;;;;6107035;19;20401;-74
2023/01/26 00:16:54;;;;;;;47.78;16.88;;;;;;;;;;6106598;19;20442;-74
2023/01/26 00:19:03;;;;;;;57.88;20.92;;;;;;;;;;6105027;19;20014;-73
2023/01/26 00:21:12;;;;;;;61.90;20.38;;;;;;;;;;6102013;19;20014;-73
2023/01/26 00:23:17;;;;;;;60.90;20.80;;;;;;;;;;6106088;19;20467;-71
2023/01/26 00:25:22;;;;;;;54.58;19.05;;;;;;;;;;6102402;19;20403;-71
2023/01/26 00:27:27;;;;;;;60.88;21.48;;;;;;;;;;6104842;19;20014;-72
2023/01/26 00:29:35;;;;;;;64.20;21.40;;;;;;;;;;6103741;19;20181;-73
2023/01/26 00:31:40;;;;;;;62.70;22.25;;;;;;;;;;6105404;19;20014;-74
2023/01/26 00:33:45;;;;;;;53.25;18.58;;;;;;;;;;6104275;19;20015;-74
2023/01/26 00:36:00;;;;;;;59.90;20.55;;;;;;;;;;6105113;19;20110;-74
2023/01/26 00:38:06;;;;;;;64.07;24.90;;;;;;;;;;6104242;19;20021;-71
2023/01/26 00:40:14;;;;;;;67.57;22.48;;;;;;;;;;6103272;19;20872;-70
2023/01/26 00:42:20;;;;;;;54.30;20.85;;;;;;;;;;6104881;19;20019;-71
2023/01/26 00:44:25;;;;;;;65.45;20.40;;;;;;;;;;6104692;19;20011;-72
2023/01/26 00:46:33;;;;;;;66.53;22.13;;;;;;;;;;6102334;19;20501;-72
2023/01/26 00:48:39;;;;;;;63.90;20.77;;;;;;;;;;6104240;19;20437;-74
2023/01/26 00:50:44;;;;;;;57.20;21.75;;;;;;;;;;6105797;19;20022;-73
2023/01/26 00:52:52;;;;;;;60.78;21.17;;;;;;;;;;6101783;19;20039;-71
2023/01/26 00:54:58;;;;;;;65.55;22.73;;;;;;;;;;6106517;19;20342;-71
2023/01/26 00:57:04;;;;;;;62.95;22.92;;;;;;;;;;6106533;19;20045;-71
2023/01/26 00:59:10;;;;;;;67.53;22.10;;;;;;;;;;6103768;19;20025;-71
2023/01/26 01:01:19;;;;;;;67.80;22.33;;;;;;;;;;6103028;19;20014;-73
2023/01/26 01:03:24;;;;;;;79.82;23.02;;;;;;;;;;6102989;19;20070;-72
2023/01/26 01:05:33;;;;;;;59.08;21.40;;;;;;;;;;6107576;19;20336;-73
2023/01/26 01:07:38;;;;;;;74.03;21.50;;;;;;;;;;6103324;19;21221;-73
2023/01/26 01:09:47;;;;;;;70.20;23.50;;;;;;;;;;6102804;19;20014;-72
2023/01/26 01:11:51;;;;;;;62.85;21.35;;;;;;;;;;6104653;19;20016;-72
2023/01/26 01:13:56;;;;;;;68.22;22.95;;;;;;;;;;6103319;19;20003;-73
2023/01/26 01:16:01;;;;;;;64.20;22.33;;;;;;;;;;6103526;19;20014;-73
2023/01/26 01:18:06;;;;;;;70.00;21.42;;;;;;;;;;6104445;19;20010;-73
2023/01/26 01:20:15;;;;;;;71.68;23.98;;;;;;;;;;6105938;19;20390;-72
2023/01/26 01:22:20;;;;;;;63.50;22.77;;;;;;;;;;6100583;19;20516;-73
2023/01/26 01:24:25;;;;;;;51.03;20.60;;;;;;;;;;6102510;19;20015;-72
2023/01/26 01:26:33;;;;;;;71.97;23.67;;;;;;;;;;6095582;19;20463;-72
2023/01/26 01:28:38;;;;;;;65.55;23.17;;;;;;;;;;6102831;19;20035;-72
2023/01/26 01:30:44;;;;;;;75.80;23.10;;;;;;;;;;6105090;19;20557;-73
2023/01/26 01:32:50;;;;;;;69.07;21.67;;;;;;;;;;6103059;19;20002;-72
2023/01/26 01:34:55;;;;;;;63.80;24.80;;;;;;;;;;6104867;19;20038;-72
2023/01/26 01:37:00;;;;;;;68.70;23.73;;;;;;;;;;6105272;19;20011;-72
2023/01/26 01:39:07;;;;;;;66.18;23.65;;;;;;;;;;6106100;19;20101;-71
2023/01/26 01:41:15;;;;;;;68.82;20.95;;;;;;;;;;6105025;19;20091;-71
2023/01/26 01:43:22;;;;;;;66.63;20.75;;;;;;;;;;6105349;19;20109;-72
2023/01/26 01:45:44;;;;;;;72.25;23.40;;;;;;;;;;6103159;19;20011;-71
2023/01/26 01:47:49;;;;;;;77.78;25.10;;;;;;;;;;6104982;19;20019;-71
2023/01/26 01:49:55;;;;;;;60.60;22.52;;;;;;;;;;6103922;19;20213;-72
2023/01/26 01:52:02;;;;;;;60.30;24.42;;;;;;;;;;6106875;19;20031;-72
2023/01/26 01:54:10;;;;;;;69.72;24.48;;;;;;;;;;6104670;19;20024;-71
2023/01/26 01:56:20;;;;;;;69.63;22.02;;;;;;;;;;6101555;19;20380;-71
2023/01/26 01:58:28;;;;;;;69.32;24.95;;;;;;;;;;6104226;19;20038;-71
2023/01/26 02:00:33;;;;;;;62.13;23.45;;;;;;;;;;6101976;19;20094;-71
2023/01/26 02:02:39;;;;;;;68.18;24.60;;;;;;;;;;6100746;19;20025;-71
2023/01/26 02:04:45;;;;;;;67.18;22.95;;;;;;;;;;6104353;19;20031;-72
2023/01/26 02:06:52;;;;;;;62.50;20.88;;;;;;;;;;6104890;19;20466;-72
2023/01/26 02:08:58;;;;;;;70.18;24.25;;;;;;;;;;6102184;19;20011;-72
2023/01/26 02:11:05;;;;;;;62.20;21.58;;;;;;;;;;6099934;19;20431;-72
2023/01/26 02:13:11;;;;;;;72.93;26.05;;;;;;;;;;6101873;19;20020;-73
2023/01/26 02:15:18;;;;;;;66.18;23.83;;;;;;;;;;6102073;19;20074;-73
2023/01/26 02:17:24;;;;;;;65.50;22.33;;;;;;;;;;6100585;19;20018;-71
2023/01/26 02:19:34;;;;;;;63.78;21.85;;;;;;;;;;6101834;19;20015;-72
2023/01/26 02:21:39;;;;;;;54.45;21.67;;;;;;;;;;6101996;19;20013;-72
2023/01/26 02:23:52;;;;;;;61.85;22.50;;;;;;;;;;6100166;19;20030;-72
2023/01/26 02:26:11;;;;;;;59.95;20.83;;;;;;;;;;6099477;19;20031;-72
2023/01/26 02:28:19;;;;;;;66.55;22.63;;;;;;;;;;6101682;19;20025;-71
2023/01/26 02:30:27;;;;;;;58.38;21.40;;;;;;;;;;6099483;19;20015;-72
2023/01/26 02:32:35;;;;;;;68.88;21.85;;;;;;;;;;6095667;19;20102;-71
2023/01/26 02:34:40;;;;;;;71.80;23.42;;;;;;;;;;6102878;19;20102;-70
2023/01/26 02:36:46;;;;;;;60.92;21.23;;;;;;;;;;6100800;19;20006;-71
2023/01/26 02:38:57;;;;;;;57.03;19.95;;;;;;;;;;6101231;19;20046;-72
2023/01/26 02:41:05;;;;;;;52.80;20.48;;;;;;;;;;6104182;19;20047;-72
2023/01/26 02:43:16;;;;;;;66.60;22.30;;;;;;;;;;6095301;19;20007;-71
2023/01/26 02:45:22;;;;;;;59.75;21.42;;;;;;;;;;6100747;19;20006;-72
2023/01/26 02:47:32;;;;;;;57.72;19.55;;;;;;;;;;6101989;19;20479;-71
2023/01/26 02:49:48;;;;;;;59.65;21.85;;;;;;;;;;6096497;19;20114;-72
2023/01/26 02:51:59;;;;;;;66.18;21.50;;;;;;;;;;6079657;19;20026;-71
2023/01/26 02:54:04;;;;;;;60.17;19.55;;;;;;;;;;6100836;19;20022;-72
2023/01/26 02:56:07;;;;;;;55.08;19.73;;;;;;;;;;6080912;19;20015;-74
2023/01/26 02:58:15;;;;;;;58.28;20.02;;;;;;;;;;6108047;19;20015;-73
2023/01/26 03:00:21;;;;;;;54.45;21.08;;;;;;;;;;6107720;19;20017;-73
2023/01/26 03:02:26;;;;;;;49.63;18.75;;;;;;;;;;6108513;19;20050;-75
2023/01/26 03:04:31;;;;;;;55.33;18.50;;;;;;;;;;6101714;19;20086;-73
2023/01/26 03:06:36;;;;;;;51.78;19.55;;;;;;;;;;6109302;19;20086;-74
2023/01/26 03:08:41;;;;;;;52.70;19.52;;;;;;;;;;6108586;19;20010;-74
2023/01/26 03:10:48;;;;;;;57.63;21.88;;;;;;;;;;6108668;19;20017;-72
2023/01/26 03:12:53;;;;;;;55.67;22.52;;;;;;;;;;6106866;19;20006;-71
2023/01/26 03:17:19;;;;;;;60.90;18.45;;;;;;;;;;6083505;19;20011;-71
2023/01/26 03:28:34;;;;;;;45.95;17.23;;;;;;;;;;6103449;19;20024;-72
2023/01/26 03:30:42;;;;;;;53.28;19.10;;;;;;;;;;6104571;19;20455;-71
2023/01/26 03:32:48;;;;;;;56.58;20.33;;;;;;;;;;6106054;19;20025;-71
2023/01/26 03:34:53;;;;;;;51.50;18.35;;;;;;;;;;6107688;19;20006;-72
2023/01/26 03:36:58;;;;;;;51.20;19.42;;;;;;;;;;6107556;19;20016;-74
2023/01/26 03:39:03;;;;;;;47.67;18.67;;;;;;;;;;6107713;19;20086;-73
2023/01/26 03:57:23;;;;;;;44.60;15.75;;;;;;;;;;6105801;19;20496;-74
2023/01/26 03:59:39;;;;;;;46.17;17.20;;;;;;;;;;6105845;19;20014;-75
2023/01/26 04:08:44;;;;;;;48.70;16.38;;;;;;;;;;6098655;19;20038;-71
2023/01/26 04:10:50;;;;;;;49.72;18.60;;;;;;;;;;6104934;19;20089;-71
2023/01/26 04:22:16;;;;;;;45.15;18.05;;;;;;;;;;6105298;19;20014;-72
2023/01/26 04:24:24;;;;;;;46.80;17.92;;;;;;;;;;6100954;19;20038;-71
2023/01/26 04:26:35;;;;;;;46.92;18.45;;;;;;;;;;6105510;19;20522;-71
2023/01/26 04:28:40;;;;;;;52.58;18.73;;;;;;;;;;6103654;19;20237;-71
2023/01/26 04:30:45;;;;;;;55.47;18.75;;;;;;;;;;6108123;19;20010;-71
2023/01/26 04:32:58;;;;;;;49.13;17.95;;;;;;;;;;6106082;19;20030;-71
2023/01/26 04:35:03;;;;;;;46.60;17.80;;;;;;;;;;6107268;19;20024;-71
2023/01/26 04:37:08;;;;;;;54.28;19.73;;;;;;;;;;6103740;19;20076;-71
2023/01/26 04:39:13;;;;;;;48.05;18.65;;;;;;;;;;6104744;19;20018;-73
2023/01/26 04:41:19;;;;;;;43.22;16.90;;;;;;;;;;6104711;19;20015;-73
2023/01/26 04:43:24;;;;;;;49.65;17.70;;;;;;;;;;6104098;19;20021;-71
2023/01/26 04:45:32;;;;;;;54.58;19.02;;;;;;;;;;6103785;19;20027;-71
2023/01/26 04:47:36;;;;;;;41.22;16.45;;;;;;;;;;6104337;19;20010;-71
2023/01/26 04:49:44;;;;;;;44.85;16.00;;;;;;;;;;6101133;19;20025;-71
2023/01/26 04:51:49;;;;;;;48.58;18.13;;;;;;;;;;6102932;19;20022;-71
2023/01/26 04:53:54;;;;;;;51.28;19.02;;;;;;;;;;6104079;19;20372;-69
2023/01/26 04:55:59;;;;;;;46.60;18.08;;;;;;;;;;6104312;19;20026;-71
2023/01/26 04:58:04;;;;;;;42.60;16.60;;;;;;;;;;6103707;19;20368;-72
2023/01/26 05:00:12;;;;;;;49.70;18.33;;;;;;;;;;6103550;19;20015;-71
2023/01/26 05:02:18;;;;;;;59.78;22.25;;;;;;;;;;6104156;19;20384;-71
2023/01/26 05:04:23;;;;;;;53.42;19.40;;;;;;;;;;6103648;19;20009;-71
2023/01/26 05:06:31;;;;;;;47.05;15.57;;;;;;;;;;6104956;19;20021;-72
2023/01/26 05:08:36;;;;;;;44.80;15.23;;;;;;;;;;6102565;19;20412;-72
2023/01/26 05:10:41;;;;;;;53.40;17.40;;;;;;;;;;6104167;19;20014;-72
2023/01/26 05:12:50;;;;;;;44.72;18.13;;;;;;;;;;6103755;19;20027;-72
2023/01/26 05:14:55;;;;;;;45.72;18.08;;;;;;;;;;6106041;19;20006;-72
2023/01/26 05:17:00;;;;;;;50.47;19.13;;;;;;;;;;6082929;19;20014;-72
2023/01/26 05:19:05;;;;;;;54.08;19.90;;;;;;;;;;6101386;19;20010;-72
2023/01/26 05:21:10;;;;;;;45.25;19.05;;;;;;;;;;6104278;19;20011;-72
2023/01/26 05:23:18;;;;;;;48.90;17.33;;;;;;;;;;6104908;19;20019;-72
2023/01/26 05:25:26;;;;;;;53.10;18.63;;;;;;;;;;6104765;19;20026;-73
2023/01/26 05:27:31;;;;;;;49.85;19.27;;;;;;;;;;6105490;19;20070;-73
2023/01/26 05:29:35;;;;;;;51.30;18.60;;;;;;;;;;6107966;19;20014;-72
2023/01/26 05:31:40;;;;;;;49.60;18.83;;;;;;;;;;6106092;19;20050;-72
2023/01/26 05:33:45;;;;;;;46.55;18.08;;;;;;;;;;6106762;19;20014;-72
2023/01/26 05:35:50;;;;;;;49.97;17.65;;;;;;;;;;6104617;19;20660;-72
2023/01/26 05:37:56;;;;;;;45.45;18.30;;;;;;;;;;6102755;19;20011;-72
2023/01/26 05:40:06;;;;;;;59.55;21.70;;;;;;;;;;6102907;19;20010;-72
2023/01/26 05:42:14;;;;;;;48.45;18.40;;;;;;;;;;6087435;19;20043;-71
2023/01/26 05:44:19;;;;;;;55.85;20.25;;;;;;;;;;6100891;19;20687;-71
2023/01/26 05:46:25;;;;;;;52.08;18.98;;;;;;;;;;6104629;19;20018;-71
2023/01/26 05:48:30;;;;;;;56.40;21.35;;;;;;;;;;6103833;19;20006;-71
2023/01/26 05:50:35;;;;;;;54.90;20.70;;;;;;;;;;6104312;19;20011;-71
2023/01/26 05:52:40;;;;;;;51.20;18.50;;;;;;;;;;6099978;19;20010;-71
2023/01/26 05:54:45;;;;;;;60.42;20.40;;;;;;;;;;6100933;19;20013;-70
2023/01/26 05:56:56;;;;;;;58.33;18.50;;;;;;;;;;6104482;19;20103;-70
2023/01/26 05:59:01;;;;;;;57.40;18.85;;;;;;;;;;6104931;19;20045;-72
2023/01/26 06:01:07;;;;;;;47.70;18.38;;;;;;;;;;6103225;19;20014;-71
2023/01/26 06:03:12;;;;;;;56.92;22.05;;;;;;;;;;6103295;19;20011;-72
2023/01/26 06:05:20;;;;;;;55.67;19.17;;;;;;;;;;6102529;19;20011;-70
2023/01/26 06:07:26;;;;;;;56.00;19.45;;;;;;;;;;6104566;19;20018;-71
2023/01/26 06:09:31;;;;;;;54.53;19.15;;;;;;;;;;6103402;19;20007;-71
2023/01/26 06:11:36;;;;;;;56.05;17.08;;;;;;;;;;6103974;19;20078;-72
2023/01/26 06:13:43;;;;;;;52.75;17.80;;;;;;;;;;6104186;19;20474;-72
2023/01/26 06:15:52;;;;;;;49.13;17.05;;;;;;;;;;6104751;19;20089;-72
2023/01/26 06:18:01;;;;;;;49.85;18.15;;;;;;;;;;6103763;19;20015;-72
2023/01/26 06:20:07;;;;;;;52.08;17.67;;;;;;;;;;6100103;19;20010;-72
2023/01/26 06:22:14;;;;;;;40.60;15.55;;;;;;;;;;6102092;19;20010;-72
2023/01/26 06:24:19;;;;;;;48.72;15.07;;;;;;;;;;6102338;19;20018;-72
2023/01/26 06:26:26;;;;;;;44.70;14.10;;;;;;;;;;6103653;19;20033;-72
2023/01/26 06:28:35;;;;;;;33.47;13.27;;;;;;;;;;6098449;19;20427;-71
2023/01/26 06:30:44;;;;;;;41.53;13.50;;;;;;;;;;6101419;19;20019;-72
2023/01/26 06:32:49;;;;;;;43.53;13.68;;;;;;;;;;6100943;19;20090;-72
2023/01/26 06:34:55;;;;;;;48.65;14.90;;;;;;;;;;6100921;19;20017;-72
2023/01/26 06:37:00;;;;;;;42.35;14.73;;;;;;;;;;6098448;19;21070;-72
2023/01/26 06:39:05;;;;;;;46.80;13.02;;;;;;;;;;6102705;19;20034;-72
2023/01/26 06:41:11;;;;;;;39.95;12.90;;;;;;;;;;6102312;19;20074;-72
2023/01/26 06:43:15;;;;;;;38.78;12.32;;;;;;;;;;6102883;19;20015;-71
2023/01/26 06:45:22;;;;;;;32.65;10.60;;;;;;;;;;6101826;19;20032;-72
2023/01/26 06:47:31;;;;;;;37.88;11.02;;;;;;;;;;6103858;19;20474;-71
2023/01/26 06:49:39;;;;;;;30.63;11.00;;;;;;;;;;6102414;19;20019;-73
2023/01/26 06:51:57;;;;;;;35.00;10.95;;;;;;;;;;6101427;19;20481;-73
2023/01/26 06:54:05;;;;;;;33.47;11.15;;;;;;;;;;6097032;19;20130;-72
2023/01/26 06:56:09;;;;;;;29.33;9.57;;;;;;;;;;6100201;19;20027;-73
2023/01/26 06:58:19;;;;;;;29.52;8.05;;;;;;;;;;6100700;19;20017;-74
2023/01/26 07:00:25;;;;;;;25.10;6.35;;;;;;;;;;6098056;19;20015;-74
2023/01/26 07:02:34;;;;;;;40.85;7.75;;;;;;;;;;6099780;19;20522;-72
2023/01/26 07:04:39;;;;;;;24.40;5.82;;;;;;;;;;6096963;19;20370;-74
2023/01/26 07:06:44;;;;;;;15.93;5.25;;;;;;;;;;6099319;19;20043;-71
2023/01/26 07:08:52;;;;;;;19.02;4.97;;;;;;;;;;6099311;19;20030;-73
2023/01/26 07:10:58;;;;;;;23.02;5.72;;;;;;;;;;6098348;19;20514;-73
2023/01/26 07:13:03;;;;;;;24.63;5.63;;;;;;;;;;6097763;19;20679;-72
2023/01/26 07:15:09;;;;;;;15.73;3.53;;;;;;;;;;6098142;19;20011;-72
2023/01/26 07:17:14;;;;;;;19.50;5.10;;;;;;;;;;6099822;19;20446;-73
2023/01/26 07:19:21;;;;;;;15.40;3.53;;;;;;;;;;6098227;19;20011;-73
2023/01/26 07:21:27;;;;;;;20.70;4.25;;;;;;;;;;6097063;19;20021;-71
2023/01/26 07:23:32;;;;;;;21.27;4.35;;;;;;;;;;6097791;19;20375;-72
2023/01/26 07:25:38;;;;;;;16.13;4.18;;;;;;;;;;6095937;19;20007;-72
2023/01/26 07:27:45;;;;;;;16.38;4.25;;;;;;;;;;6098369;19;20010;-72
2023/01/26 07:29:50;;;;;;;20.30;3.60;;;;;;;;;;6096179;19;20453;-72
2023/01/26 07:31:55;;;;;;;17.45;3.47;;;;;;;;;;6097105;19;20014;-72
2023/01/26 07:34:00;;;;;;;24.00;4.75;;;;;;;;;;6097933;19;20010;-72
2023/01/26 07:36:09;;;;;;;13.52;2.95;;;;;;;;;;6098772;19;20607;-72
2023/01/26 07:38:14;;;;;;;19.77;3.45;;;;;;;;;;6097384;19;20290;-73
2023/01/26 07:40:20;;;;;;;14.60;4.25;;;;;;;;;;6101823;19;20007;-72
2023/01/26 07:42:25;;;;;;;18.73;3.17;;;;;;;;;;6102027;19;20732;-71
2023/01/26 07:44:30;;;;;;;20.77;4.18;;;;;;;;;;6105717;19;20537;-72
2023/01/26 07:46:35;;;;;;;19.80;3.83;;;;;;;;;;6104566;19;20714;-71
2023/01/26 07:48:40;;;;;;;18.90;3.33;;;;;;;;;;6108827;19;20517;-72
2023/01/26 07:50:46;;;;;;;13.73;3.58;;;;;;;;;;6109624;19;20353;-73
2023/01/26 07:52:54;;;;;;;12.93;3.70;;;;;;;;;;6104038;19;20022;-71
2023/01/26 07:54:58;;;;;;;17.23;2.97;;;;;;;;;;6107377;19;20034;-72
2023/01/26 07:57:05;;;;;;;17.58;3.38;;;;;;;;;;6108852;19;20086;-73
2023/01/26 07:59:15;;;;;;;16.75;3.75;;;;;;;;;;6109308;19;20042;-72
2023/01/26 08:01:21;;;;;;;13.23;3.38;;;;;;;;;;6107503;19;20014;-72
2023/01/26 08:03:26;;;;;;;19.45;3.58;;;;;;;;;;6107837;19;20017;-72
2023/01/26 08:05:31;;;;;;;20.55;4.38;;;;;;;;;;6107556;19;20027;-72
2023/01/26 08:07:36;;;;;;;17.27;3.10;;;;;;;;;;6086616;19;20014;-72
2023/01/26 08:09:46;;;;;;;13.93;3.10;;;;;;;;;;6108187;19;20027;-72
2023/01/26 08:11:51;;;;;;;29.17;4.78;;;;;;;;;;6106532;19;20031;-73
2023/01/26 08:13:57;;;;;;;14.93;3.22;;;;;;;;;;6103332;19;20031;-73
2023/01/26 08:16:08;;;;;;;17.58;4.15;;;;;;;;;;6106629;19;20038;-73
2023/01/26 08:18:15;;;;;;;14.85;3.72;;;;;;;;;;6107666;19;20006;-73
2023/01/26 08:20:20;;;;;;;11.88;3.55;;;;;;;;;;6107717;19;20086;-73
2023/01/26 08:22:26;;;;;;;19.10;4.00;;;;;;;;;;6108003;19;20014;-73
2023/01/26 08:24:30;;;;;;;21.13;4.35;;;;;;;;;;6107501;19;20013;-73
2023/01/26 08:26:38;;;;;;;19.25;3.67;;;;;;;;;;6107779;19;20014;-73
2023/01/26 08:28:43;;;;;;;25.08;5.40;;;;;;;;;;6104741;19;20035;-72
2023/01/26 08:30:48;;;;;;;14.10;3.05;;;;;;;;;;6108432;19;20082;-72
2023/01/26 08:32:53;;;;;;;12.65;3.20;;;;;;;;;;6108260;19;20033;-72
2023/01/26 08:34:58;;;;;;;17.40;4.03;;;;;;;;;;6107254;19;20074;-73
2023/01/26 08:37:03;;;;;;;16.88;3.88;;;;;;;;;;6103519;19;20017;-73
2023/01/26 08:39:08;;;;;;;19.88;4.72;;;;;;;;;;6106023;19;20007;-73
2023/01/26 08:41:14;;;;;;;17.00;3.97;;;;;;;;;;6109059;19;20550;-73
2023/01/26 08:43:21;;;;;;;15.88;3.53;;;;;;;;;;6110377;19;20007;-74
2023/01/26 08:45:26;;;;;;;18.80;4.32;;;;;;;;;;6108824;19;20018;-73
2023/01/26 08:47:32;;;;;;;22.33;4.78;;;;;;;;;;6108461;19;20129;-73
2023/01/26 08:49:36;;;;;;;24.90;4.15;;;;;;;;;;6109803;19;20064;-73
2023/01/26 08:51:41;;;;;;;17.27;3.95;;;;;;;;;;6109309;19;20026;-73
2023/01/26 08:53:50;;;;;;;15.48;3.22;;;;;;;;;;6104680;19;20018;-73
2023/01/26 08:55:57;;;;;;;16.33;3.15;;;;;;;;;;6106850;19;20045;-74
2023/01/26 08:58:02;;;;;;;17.85;4.43;;;;;;;;;;6110058;19;20010;-73
2023/01/26 09:00:11;;;;;;;23.52;4.07;;;;;;;;;;6108774;19;20031;-73
2023/01/26 09:02:19;;;;;;;16.27;3.45;;;;;;;;;;6107965;19;20014;-74
2023/01/26 09:04:26;;;;;;;22.23;3.95;;;;;;;;;;6110594;19;20078;-73
2023/01/26 09:06:31;;;;;;;14.27;3.67;;;;;;;;;;6108946;19;20019;-73
2023/01/26 09:08:36;;;;;;;12.85;3.28;;;;;;;;;;6104532;19;20350;-73
2023/01/26 09:10:43;;;;;;;20.30;3.72;;;;;;;;;;6104893;19;20017;-73
2023/01/26 09:12:50;;;;;;;22.60;4.28;;;;;;;;;;6107816;19;20035;-72
2023/01/26 09:14:55;;;;;;;22.05;4.28;;;;;;;;;;6106248;19;20018;-72
2023/01/26 09:17:04;;;;;;;18.23;4.10;;;;;;;;;;6106284;19;20019;-73
2023/01/26 09:19:09;;;;;;;17.02;3.92;;;;;;;;;;6105635;19;20482;-73
2023/01/26 09:21:14;;;;;;;20.80;3.88;;;;;;;;;;6104411;19;20509;-73
2023/01/26 09:23:19;;;;;;;25.40;3.75;;;;;;;;;;6104839;19;20077;-73
2023/01/26 09:25:25;;;;;;;19.05;3.40;;;;;;;;;;6105299;19;20074;-72
2023/01/26 09:27:30;;;;;;;14.95;3.63;;;;;;;;;;6106145;19;20010;-72
2023/01/26 09:29:34;;;;;;;21.33;3.95;;;;;;;;;;6105271;19;20010;-73
2023/01/26 09:31:39;;;;;;;20.48;3.65;;;;;;;;;;6103023;19;20011;-73
2023/01/26 09:33:47;;;;;;;16.95;3.42;;;;;;;;;;6107254;19;20010;-72
2023/01/26 09:35:52;;;;;;;20.65;4.38;;;;;;;;;;6103995;19;20018;-73
2023/01/26 09:37:57;;;;;;;21.33;4.03;;;;;;;;;;6103288;19;20007;-73
2023/01/26 09:40:02;;;;;;;13.18;3.50;;;;;;;;;;6106656;19;20038;-73
2023/01/26 09:42:22;;;;;;;15.18;3.78;;;;;;;;;;6103263;19;20007;-72
2023/01/26 09:44:28;;;;;;;19.05;3.42;;;;;;;;;;6105458;19;20356;-73
2023/01/26 09:46:45;;;;;;;28.88;4.78;;;;;;;;;;6106048;19;20042;-73
2023/01/26 09:49:03;;;;;;;13.65;3.35;;;;;;;;;;6100674;19;20015;-72
2023/01/26 09:51:12;;;;;;;17.45;3.75;;;;;;;;;;6104392;19;20018;-73
2023/01/26 09:53:26;;;;;;;18.38;3.95;;;;;;;;;;6102492;19;20453;-73
2023/01/26 09:55:31;;;;;;;20.55;3.58;;;;;;;;;;6105911;19;20042;-72
2023/01/26 09:57:41;;;;;;;18.17;3.58;;;;;;;;;;6105095;19;20478;-72
2023/01/26 09:59:54;;;;;;;18.10;4.45;;;;;;;;;;6105731;19;20031;-73
2023/01/26 10:02:05;;;;;;;19.38;4.18;;;;;;;;;;6102870;19;20022;-73
2023/01/26 10:04:20;;;;;;;16.88;3.65;;;;;;;;;;6105384;19;20006;-73
2023/01/26 10:06:28;;;;;;;23.98;4.70;;;;;;;;;;6103479;19;20466;-73
2023/01/26 10:08:33;;;;;;;13.95;3.38;;;;;;;;;;6104907;19;20050;-73
2023/01/26 10:10:42;;;;;;;25.58;4.07;;;;;;;;;;6102091;19;20010;-73
2023/01/26 10:12:50;;;;;;;27.48;3.95;;;;;;;;;;6105697;19;20038;-73
2023/01/26 10:15:00;;;;;;;26.55;4.07;;;;;;;;;;6103992;19;20033;-73
2023/01/26 10:17:07;;;;;;;14.73;3.72;;;;;;;;;;6101679;19;20006;-73
2023/01/26 10:19:20;;;;;;;16.33;3.30;;;;;;;;;;6103957;19;20328;-72
2023/01/26 10:21:28;;;;;;;17.38;3.28;;;;;;;;;;6101238;19;20280;-73
2023/01/26 10:23:37;;;;;;;17.63;3.55;;;;;;;;;;6102513;19;20499;-74
2023/01/26 10:25:45;;;;;;;15.23;3.28;;;;;;;;;;6102762;19;20017;-73
2023/01/26 10:27:50;;;;;;;17.52;3.20;;;;;;;;;;6104694;19;20014;-74
2023/01/26 10:29:55;;;;;;;26.25;3.92;;;;;;;;;;6103061;19;20090;-73
2023/01/26 10:32:00;;;;;;;14.55;3.22;;;;;;;;;;6104651;19;20461;-74
2023/01/26 10:34:16;;;;;;;16.05;4.57;;;;;;;;;;6104296;19;20006;-73
2023/01/26 10:36:21;;;;;;;17.40;4.97;;;;;;;;;;6101667;19;20014;-74
2023/01/26 10:38:43;;;;;;;16.88;3.47;;;;;;;;;;6104150;19;20010;-73
2023/01/26 10:40:47;;;;;;;13.85;3.00;;;;;;;;;;6102711;19;20021;-73
2023/01/26 10:42:58;;;;;;;19.95;4.25;;;;;;;;;;6104117;19;20007;-73
2023/01/26 10:45:05;;;;;;;17.35;3.90;;;;;;;;;;6104088;19;20011;-74
2023/01/26 10:47:20;;;;;;;13.85;3.72;;;;;;;;;;6105228;19;20013;-74
2023/01/26 10:49:28;;;;;;;16.13;3.17;;;;;;;;;;6103726;19;20007;-73
2023/01/26 10:51:35;;;;;;;15.70;3.55;;;;;;;;;;6104141;19;20010;-74
2023/01/26 10:53:39;;;;;;;17.40;4.70;;;;;;;;;;6100983;19;20547;-73
2023/01/26 10:55:44;;;;;;;24.80;3.72;;;;;;;;;;6105080;19;20021;-73
2023/01/26 10:57:52;;;;;;;13.40;2.70;;;;;;;;;;6103277;19;20471;-74
2023/01/26 10:59:58;;;;;;;12.25;2.80;;;;;;;;;;6104094;19;20049;-72
2023/01/26 11:02:23;;;;;;;14.98;3.25;;;;;;;;;;6104194;19;20011;-72
2023/01/26 11:04:31;;;;;;;11.97;2.77;;;;;;;;;;6102707;19;20011;-73
2023/01/26 11:06:37;;;;;;;13.32;3.38;;;;;;;;;;6104357;19;20272;-73
2023/01/26 11:08:42;;;;;;;14.35;2.67;;;;;;;;;;6099297;19;20614;-73
2023/01/26 11:10:56;;;;;;;9.20;2.83;;;;;;;;;;6103035;19;20020;-73
2023/01/26 11:13:19;;;;;;;9.05;2.72;;;;;;;;;;6103200;19;20417;-73
2023/01/26 11:15:27;;;;;;;9.73;2.55;;;;;;;;;;6102135;19;20038;-73
2023/01/26 11:17:39;;;;;;;10.85;3.50;;;;;;;;;;6102331;19;20497;-74
2023/01/26 11:20:02;;;;;;;18.05;2.72;;;;;;;;;;6108003;19;20014;-75
2023/01/26 11:22:08;;;;;;;14.27;3.47;;;;;;;;;;6108584;19;20443;-73
2023/01/26 11:24:19;;;;;;;17.83;3.33;;;;;;;;;;6107986;19;20011;-72
2023/01/26 11:26:56;;;;;;;9.45;3.22;;;;;;;;;;6110194;19;20022;-73
2023/01/26 11:29:17;;;;;;;12.85;2.97;;;;;;;;;;6105013;19;20812;-73
2023/01/26 11:31:31;;;;;;;14.50;3.08;;;;;;;;;;6107230;19;20066;-73
2023/01/26 11:33:40;;;;;;;8.50;2.75;;;;;;;;;;6108162;19;20010;-73
2023/01/26 11:35:54;;;;;;;13.48;2.72;;;;;;;;;;6109833;19;20023;-73
2023/01/26 11:38:08;;;;;;;7.25;2.78;;;;;;;;;;6109496;19;20017;-74
2023/01/26 11:40:36;;;;;;;13.32;2.67;;;;;;;;;;6107901;19;20019;-73
2023/01/26 11:42:49;;;;;;;10.65;2.78;;;;;;;;;;6106896;19;20041;-73
2023/01/26 11:45:19;;;;;;;12.50;3.10;;;;;;;;;;6109568;19;20369;-74
2023/01/26 11:47:34;;;;;;;10.10;2.85;;;;;;;;;;6105841;19;20011;-73
2023/01/26 11:49:52;;;;;;;12.25;2.28;;;;;;;;;;6110321;19;20007;-75
2023/01/26 11:52:09;;;;;;;8.48;2.33;;;;;;;;;;6112786;19;20055;-75
2023/01/26 11:54:24;;;;;;;14.68;2.47;;;;;;;;;;6112317;19;20014;-74
2023/01/26 11:56:42;;;;;;;9.38;2.30;;;;;;;;;;6114557;19;20006;-75
2023/01/26 11:58:51;;;;;;;14.73;2.83;;;;;;;;;;6109733;19;20069;-75
2023/01/26 12:00:58;;;;;;;8.55;2.00;;;;;;;;;;6108921;19;20013;-74
2023/01/26 12:03:06;;;;;;;8.98;2.30;;;;;;;;;;6111736;19;20502;-74
2023/01/26 12:05:15;;;;;;;14.30;2.33;;;;;;;;;;6111194;19;20006;-74
2023/01/26 12:07:25;;;;;;;9.32;2.15;;;;;;;;;;6110366;19;20046;-74
2023/01/26 12:09:37;;;;;;;10.90;2.20;;;;;;;;;;6108485;19;20007;-74
2023/01/26 12:11:44;;;;;;;12.80;2.17;;;;;;;;;;6109830;19;20015;-73
2023/01/26 12:13:57;;;;;;;11.13;2.65;;;;;;;;;;6109364;19;20604;-73
2023/01/26 12:16:18;;;;;;;11.98;2.53;;;;;;;;;;6106141;19;20252;-74
2023/01/26 12:18:25;;;;;;;11.43;2.95;;;;;;;;;;6105301;19;20014;-73
2023/01/26 12:20:47;;;;;;;10.43;1.87;;;;;;;;;;6104441;19;20015;-73
2023/01/26 12:22:59;;;;;;;6.65;1.80;;;;;;;;;;6104946;19;20014;-74
2023/01/26 12:25:21;;;;;;;9.05;2.30;;;;;;;;;;6109074;19;20020;-72
2023/01/26 12:27:29;;;;;;;8.82;2.30;;;;;;;;;;6109032;19;20097;-73
2023/01/26 12:29:39;;;;;;;11.48;2.55;;;;;;;;;;6105529;19;20364;-73
2023/01/26 12:31:48;;;;;;;10.30;2.38;;;;;;;;;;6107024;19;20010;-73
2023/01/26 12:33:55;;;;;;;7.22;1.90;;;;;;;;;;6108734;19;20043;-73
2023/01/26 12:36:07;;;;;;;10.07;2.00;;;;;;;;;;6107718;19;20385;-74
2023/01/26 12:38:18;;;;;;;11.55;2.92;;;;;;;;;;6107847;19;20030;-74
2023/01/26 12:40:30;;;;;;;10.20;2.38;;;;;;;;;;6107986;19;20011;-74
2023/01/26 12:42:46;;;;;;;7.83;2.43;;;;;;;;;;6106551;19;20097;-73
2023/01/26 12:44:55;;;;;;;11.95;2.47;;;;;;;;;;6105888;19;20014;-73
2023/01/26 12:47:03;;;;;;;8.40;1.90;;;;;;;;;;6107535;19;21411;-73
2023/01/26 12:49:14;;;;;;;9.25;2.55;;;;;;;;;;6104861;19;20018;-74
2023/01/26 12:51:23;;;;;;;10.73;2.53;;;;;;;;;;6104319;19;20019;-73
2023/01/26 12:53:33;;;;;;;9.05;2.28;;;;;;;;;;6100443;19;20006;-74
2023/01/26 12:55:42;;;;;;;;;;;;;;;;;;6103897;19;20530;-74
2023/01/26 12:57:50;;;;;;;8.93;2.83;;;;;;;;;;6105135;19;19919;-74
2023/01/26 12:59:55;;;;;;;10.13;2.60;;;;;;;;;;6107038;19;20268;-73
2023/01/26 13:02:00;;;;;;;10.13;2.90;;;;;;;;;;6108321;19;20038;-74
2023/01/26 13:04:08;;;;;;;10.98;2.67;;;;;;;;;;6106176;19;20388;-73
2023/01/26 13:06:24;;;;;;;7.80;2.13;;;;;;;;;;6105695;19;20675;-73
2023/01/26 13:09:03;;;;;;;11.63;2.83;;;;;;;;;;6106046;19;20042;-74
2023/01/26 13:11:09;;;;;;;8.02;2.17;;;;;;;;;;6100661;19;20022;-74
2023/01/26 13:13:31;;;;;;;18.98;3.03;;;;;;;;;;6105703;19;20018;-74
2023/01/26 13:15:44;;;;;;;12.27;2.80;;;;;;;;;;6107525;19;20038;-74